Time;durP1;ratioP1;P1;durP2;ratioP2;P2;SDS_P1;SDS_P2;PMS_P1;PMS_P2;Temp;Humidity;BMP_temperature;BMP_pressure;BME280_temperature;BME280_humidity;BME280_pressure;Samples;Min_cycle;Max_cycle;Signal;HPM_P1;HPM_P2
2023/01/15 00:01:03;;;;;;;43.17;30.40;;;10.40;79.60;;;;;;6338921;22;19995;-78
2023/01/15 00:03:29;;;;;;;47.08;30.55;;;10.40;79.60;;;;;;6338354;22;20006;-76
2023/01/15 00:05:55;;;;;;;50.95;29.92;;;10.40;79.60;;;;;;6338478;22;19995;-77
2023/01/15 00:08:21;;;;;;;42.05;29.20;;;10.40;79.40;;;;;;6338287;22;20301;-77
2023/01/15 00:10:47;;;;;;;43.92;29.98;;;10.40;79.60;;;;;;6338301;22;20030;-76
2023/01/15 00:13:12;;;;;;;43.97;30.17;;;10.40;79.30;;;;;;6310500;22;20069;-77
2023/01/15 00:15:38;;;;;;;43.15;30.13;;;10.30;79.20;;;;;;6338257;22;20033;-76
2023/01/15 00:18:04;;;;;;;43.72;30.25;;;10.20;79.50;;;;;;6338368;22;20033;-77
2023/01/15 00:20:29;;;;;;;36.00;27.63;;;10.20;79.90;;;;;;6338056;22;19999;-77
2023/01/15 00:22:55;;;;;;;39.67;27.83;;;10.20;79.70;;;;;;6338434;22;20003;-76
2023/01/15 00:28:05;;;;;;;;;;;10.20;80.30;;;;;;6338377;22;20018;-76
2023/01/15 00:30:31;;;;;;;39.92;28.48;;;10.20;80.50;;;;;;6337940;22;19898;-77
2023/01/15 00:32:57;;;;;;;43.38;29.20;;;10.10;80.20;;;;;;6337925;22;20015;-78
2023/01/15 00:35:24;;;;;;;41.80;28.98;;;10.10;79.70;;;;;;6337783;22;19995;-77
2023/01/15 00:37:50;;;;;;;44.55;28.73;;;10.10;80.00;;;;;;6337964;22;20006;-77
2023/01/15 00:40:20;;;;;;;42.47;28.88;;;10.10;79.70;;;;;;6337965;22;20109;-75
2023/01/15 00:42:45;;;;;;;43.33;27.77;;;10.00;79.80;;;;;;6338235;22;20065;-76
2023/01/15 00:45:12;;;;;;;40.40;27.73;;;9.90;80.70;;;;;;6337639;22;20003;-78
2023/01/15 00:47:42;;;;;;;40.95;27.92;;;9.90;80.90;;;;;;6337943;22;20373;-75
2023/01/15 00:50:11;;;;;;;40.30;28.02;;;9.90;81.50;;;;;;6337823;22;19999;-77
2023/01/15 00:52:37;;;;;;;38.83;28.90;;;9.90;81.30;;;;;;6337409;22;20035;-76
2023/01/15 00:55:03;;;;;;;36.83;28.15;;;9.90;81.20;;;;;;6337505;22;19999;-77
2023/01/15 00:57:29;;;;;;;40.40;27.92;;;9.80;81.30;;;;;;6337722;22;20336;-76
2023/01/15 00:59:55;;;;;;;37.70;27.27;;;9.80;81.50;;;;;;6337510;22;19995;-77
2023/01/15 01:02:20;;;;;;;43.92;28.85;;;9.80;81.60;;;;;;6337432;22;20496;-76
2023/01/15 01:04:46;;;;;;;36.17;27.45;;;9.80;81.50;;;;;;6337579;22;20030;-77
2023/01/15 01:07:12;;;;;;;35.65;26.98;;;9.80;81.70;;;;;;6336628;22;20003;-77
2023/01/15 01:09:38;;;;;;;40.45;26.80;;;9.80;81.60;;;;;;6337315;22;19999;-77
2023/01/15 01:12:03;;;;;;;44.42;28.98;;;9.80;81.30;;;;;;6337759;22;20447;-76
2023/01/15 01:14:31;;;;;;;42.00;28.45;;;9.90;81.70;;;;;;6337397;22;20046;-77
2023/01/15 01:16:57;;;;;;;37.00;26.27;;;9.90;81.40;;;;;;6337413;22;20332;-76
2023/01/15 01:19:23;;;;;;;41.00;27.27;;;9.80;81.60;;;;;;6337253;22;20022;-76
2023/01/15 01:22:10;;;;;;;36.47;25.83;;;9.80;81.60;;;;;;6337737;22;20032;-77
2023/01/15 01:24:35;;;;;;;36.05;25.63;;;9.70;81.60;;;;;;6311471;22;20010;-75
2023/01/15 01:27:01;;;;;;;36.25;25.98;;;9.70;81.80;;;;;;6339704;22;19999;-76
2023/01/15 01:29:27;;;;;;;35.45;25.00;;;9.70;82.30;;;;;;6339322;22;20034;-75
2023/01/15 01:31:52;;;;;;;35.80;25.90;;;9.60;81.50;;;;;;6340125;22;19995;-76
2023/01/15 01:34:18;;;;;;;35.03;25.73;;;9.60;81.80;;;;;;6339189;22;20399;-77
2023/01/15 01:36:44;;;;;;;36.53;26.38;;;9.60;81.60;;;;;;6339003;22;19998;-75
2023/01/15 01:39:17;;;;;;;34.72;23.42;;;9.60;81.80;;;;;;6339017;22;20091;-77
2023/01/15 01:41:44;;;;;;;26.95;18.90;;;9.60;81.90;;;;;;6338795;22;20071;-76
2023/01/15 01:44:31;;;;;;;38.05;25.55;;;9.50;81.60;;;;;;6338903;22;20033;-77
2023/01/15 01:47:00;;;;;;;32.25;23.85;;;9.50;81.80;;;;;;6311244;22;20363;-76
2023/01/15 01:49:26;;;;;;;32.03;23.90;;;9.40;81.70;;;;;;6339044;22;20002;-76
2023/01/15 01:52:05;;;;;;;34.10;24.08;;;9.40;81.70;;;;;;6311261;22;20033;-77
2023/01/15 01:54:34;;;;;;;32.45;23.33;;;9.40;82.00;;;;;;6338509;22;20049;-77
2023/01/15 01:56:59;;;;;;;31.10;23.77;;;9.40;81.80;;;;;;6338549;22;19999;-77
2023/01/15 01:59:26;;;;;;;31.40;23.25;;;9.40;81.90;;;;;;6338879;22;20075;-76
2023/01/15 02:01:52;;;;;;;30.65;22.33;;;9.50;82.00;;;;;;6338667;22;20421;-76
2023/01/15 02:04:21;;;;;;;35.97;23.63;;;9.50;81.70;;;;;;6338609;22;20117;-76
2023/01/15 02:06:47;;;;;;;30.70;22.38;;;9.50;82.00;;;;;;6338567;22;20002;-75
2023/01/15 02:09:13;;;;;;;32.42;22.98;;;9.50;81.80;;;;;;6338817;22;20029;-75
2023/01/15 02:11:38;;;;;;;31.73;23.50;;;9.40;82.00;;;;;;6338476;22;20003;-75
2023/01/15 02:14:23;;;;;;;34.35;22.48;;;9.30;81.90;;;;;;6338460;22;20019;-75
2023/01/15 02:17:00;;;;;;;32.92;21.65;;;9.30;82.20;;;;;;6337993;22;20297;-75
2023/01/15 02:20:14;;;;;;;33.67;22.63;;;9.20;82.40;;;;;;6338412;22;20196;-76
2023/01/15 02:23:11;;;;;;;35.55;22.58;;;9.20;82.00;;;;;;6338302;22;19999;-76
2023/01/15 02:25:45;;;;;;;30.75;20.98;;;9.20;82.20;;;;;;6338806;22;20006;-76
2023/01/15 02:28:33;;;;;;;28.58;21.10;;;9.30;82.50;;;;;;6338646;22;19995;-76
2023/01/15 02:31:08;;;;;;;32.83;20.55;;;9.30;82.60;;;;;;6310592;22;20369;-76
2023/01/15 02:33:58;;;;;;;26.23;19.50;;;9.20;82.00;;;;;;6310630;22;20080;-76
2023/01/15 02:36:28;;;;;;;29.48;19.98;;;9.20;82.10;;;;;;6338196;22;20003;-76
2023/01/15 02:38:58;;;;;;;33.80;21.20;;;9.20;82.30;;;;;;6337961;22;20011;-77
2023/01/15 02:41:30;;;;;;;30.05;20.25;;;9.10;82.30;;;;;;6338271;22;20503;-76
2023/01/15 02:43:58;;;;;;;30.73;18.95;;;9.10;82.60;;;;;;6338556;22;20003;-77
2023/01/15 02:46:29;;;;;;;26.77;18.02;;;9.10;82.40;;;;;;6338069;22;19994;-76
2023/01/15 02:48:58;;;;;;;24.95;18.88;;;9.20;82.20;;;;;;6338223;22;20003;-75
2023/01/15 02:51:30;;;;;;;29.55;17.98;;;9.20;82.20;;;;;;6338242;22;19999;-74
2023/01/15 02:54:00;;;;;;;21.90;17.42;;;9.20;82.10;;;;;;6337281;22;20098;-77
2023/01/15 02:56:31;;;;;;;25.05;17.40;;;9.20;82.10;;;;;;6337161;22;20005;-76
2023/01/15 02:59:02;;;;;;;28.88;17.80;;;9.20;82.30;;;;;;6338048;22;19999;-77
2023/01/15 03:01:34;;;;;;;25.75;17.83;;;9.20;82.10;;;;;;6338561;22;20006;-77
2023/01/15 03:04:11;;;;;;;24.10;17.35;;;9.20;82.10;;;;;;6339510;22;20021;-76
2023/01/15 03:06:44;;;;;;;27.08;16.92;;;9.10;82.50;;;;;;6311207;22;20086;-75
2023/01/15 03:09:10;;;;;;;18.05;12.38;;;9.10;82.50;;;;;;6338424;22;19994;-76
2023/01/15 03:11:43;;;;;;;25.02;16.92;;;9.10;82.10;;;;;;6338253;22;20009;-75
2023/01/15 03:14:19;;;;;;;26.45;17.67;;;9.10;82.20;;;;;;6338182;22;20064;-76
2023/01/15 03:17:12;;;;;;;25.50;16.50;;;9.00;82.20;;;;;;6338124;22;20057;-75
2023/01/15 03:19:44;;;;;;;21.40;15.30;;;9.00;82.10;;;;;;6324298;22;20038;-76
2023/01/15 03:22:29;;;;;;;24.80;15.50;;;9.00;82.30;;;;;;6338050;22;20088;-76
2023/01/15 03:25:04;;;;;;;20.77;15.23;;;9.10;82.20;;;;;;6338015;22;20007;-76
2023/01/15 03:27:30;;;;;;;24.75;15.20;;;9.10;82.00;;;;;;6310375;22;20079;-76
2023/01/15 03:30:17;;;;;;;23.65;14.60;;;9.20;82.20;;;;;;6337850;22;20077;-76
2023/01/15 03:32:43;;;;;;;19.92;14.88;;;9.20;82.20;;;;;;6337789;22;20070;-76
2023/01/15 03:35:46;;;;;;;21.85;14.82;;;9.20;82.10;;;;;;6337783;22;20029;-77
2023/01/15 03:38:14;;;;;;;24.55;14.95;;;9.20;82.00;;;;;;6337905;22;20015;-75
2023/01/15 03:41:01;;;;;;;20.70;13.85;;;9.30;81.80;;;;;;6337705;22;19998;-76
2023/01/15 03:43:56;;;;;;;24.23;15.05;;;9.40;81.80;;;;;;6337829;22;20065;-76
2023/01/15 03:46:27;;;;;;;21.95;15.18;;;9.40;81.80;;;;;;6337495;22;20076;-76
2023/01/15 03:49:27;;;;;;;20.92;15.02;;;9.40;81.50;;;;;;6337476;22;20002;-76
2023/01/15 03:52:07;;;;;;;21.02;14.98;;;9.40;81.70;;;;;;6336984;22;20009;-77
2023/01/15 03:54:38;;;;;;;20.08;14.55;;;9.40;81.50;;;;;;6337755;22;20011;-76
2023/01/15 03:57:13;;;;;;;20.45;14.27;;;9.30;81.70;;;;;;6337635;22;20422;-77
2023/01/15 03:59:49;;;;;;;26.17;14.10;;;9.30;81.50;;;;;;6337567;22;20034;-76
2023/01/15 04:02:18;;;;;;;22.00;13.93;;;9.30;81.80;;;;;;6337611;22;20443;-76
2023/01/15 04:04:44;;;;;;;21.98;14.02;;;9.30;81.50;;;;;;6337671;22;20429;-76
2023/01/15 04:07:10;;;;;;;20.75;13.38;;;9.30;81.70;;;;;;6337749;22;20032;-76
2023/01/15 04:09:38;;;;;;;22.33;14.85;;;9.30;81.70;;;;;;6337601;22;20081;-77
2023/01/15 04:12:04;;;;;;;21.77;13.45;;;9.40;81.90;;;;;;6337234;22;20006;-76
2023/01/15 04:14:30;;;;;;;20.05;14.50;;;9.30;81.60;;;;;;6337543;22;20007;-75
2023/01/15 04:16:56;;;;;;;19.50;13.27;;;9.30;81.60;;;;;;6337365;22;20006;-75
2023/01/15 04:19:22;;;;;;;25.05;14.70;;;9.40;81.70;;;;;;6337538;22;20065;-76
2023/01/15 04:21:47;;;;;;;20.70;13.75;;;9.40;81.80;;;;;;6337874;22;20058;-75
2023/01/15 04:24:13;;;;;;;18.77;13.40;;;9.40;81.60;;;;;;6337428;22;20030;-76
2023/01/15 04:26:39;;;;;;;19.92;13.85;;;9.40;81.60;;;;;;6337693;22;20015;-77
2023/01/15 04:29:04;;;;;;;22.98;14.88;;;9.50;81.80;;;;;;6337572;22;20477;-76
2023/01/15 04:31:32;;;;;;;21.45;14.02;;;9.40;81.40;;;;;;6337499;22;20074;-76
2023/01/15 04:33:58;;;;;;;20.98;13.90;;;9.40;81.70;;;;;;6337395;22;20087;-78
2023/01/15 04:36:24;;;;;;;20.50;14.20;;;9.40;81.50;;;;;;6337469;22;20006;-76
2023/01/15 04:38:49;;;;;;;24.67;14.10;;;9.40;81.40;;;;;;6309190;22;20019;-76
2023/01/15 04:44:05;;;;;;;19.33;13.70;;;9.40;81.60;;;;;;6307082;22;20068;-77
2023/01/15 04:46:34;;;;;;;20.70;13.98;;;9.40;81.70;;;;;;6307541;22;20061;-77
2023/01/15 04:49:00;;;;;;;23.80;13.95;;;9.40;81.60;;;;;;6279679;22;20009;-76
2023/01/15 04:51:25;;;;;;;23.55;14.57;;;9.40;81.60;;;;;;6278674;22;20046;-77
2023/01/15 04:53:52;;;;;;;20.85;14.52;;;9.40;81.80;;;;;;6305776;22;20011;-76
2023/01/15 04:56:18;;;;;;;26.15;15.20;;;9.40;81.80;;;;;;6306218;22;20022;-76
2023/01/15 04:58:44;;;;;;;18.73;13.82;;;9.40;81.40;;;;;;6306367;22;20007;-75
2023/01/15 05:01:11;;;;;;;19.00;13.05;;;9.40;81.40;;;;;;6307884;22;20030;-76
2023/01/15 05:03:37;;;;;;;22.08;14.35;;;9.40;81.60;;;;;;6308202;22;19999;-78
2023/01/15 05:06:03;;;;;;;20.08;13.57;;;9.30;81.40;;;;;;6307929;22;20022;-76
2023/01/15 05:08:29;;;;;;;19.67;13.25;;;9.40;82.10;;;;;;6308299;22;20034;-75
2023/01/15 05:10:54;;;;;;;21.13;13.05;;;9.30;81.90;;;;;;6307670;22;20093;-76
2023/01/15 05:13:20;;;;;;;21.05;13.70;;;9.30;82.40;;;;;;6307666;22;20011;-77
2023/01/15 05:15:47;;;;;;;22.48;13.70;;;9.30;82.30;;;;;;6308002;22;20006;-75
2023/01/15 05:18:14;;;;;;;21.55;13.52;;;9.30;82.50;;;;;;6307762;22;20008;-76
2023/01/15 05:20:42;;;;;;;20.23;14.18;;;9.30;82.10;;;;;;6307811;22;20498;-77
2023/01/15 05:23:08;;;;;;;22.23;13.00;;;9.30;82.40;;;;;;6307511;22;20320;-76
2023/01/15 05:25:37;;;;;;;17.88;12.98;;;9.40;82.40;;;;;;6307906;22;19996;-77
2023/01/15 05:28:03;;;;;;;20.08;13.52;;;9.40;82.00;;;;;;6307779;22;20006;-77
2023/01/15 05:30:29;;;;;;;19.10;13.77;;;9.40;82.40;;;;;;6307730;22;20004;-75
2023/01/15 05:32:54;;;;;;;22.83;13.18;;;9.50;82.50;;;;;;6307377;22;20429;-76
2023/01/15 05:35:20;;;;;;;27.65;13.70;;;9.50;82.30;;;;;;6307745;22;20419;-77
2023/01/15 05:37:46;;;;;;;17.50;13.05;;;9.50;82.10;;;;;;6307875;22;20337;-76
2023/01/15 05:40:12;;;;;;;20.42;13.65;;;9.50;82.10;;;;;;6308332;22;20474;-75
2023/01/15 05:42:38;;;;;;;24.23;12.23;;;9.60;82.30;;;;;;6307922;22;20075;-76
2023/01/15 05:45:04;;;;;;;18.65;12.40;;;9.60;82.50;;;;;;6307885;22;20049;-75
2023/01/15 05:47:29;;;;;;;21.25;12.35;;;9.60;82.50;;;;;;6308079;22;20423;-76
2023/01/15 05:49:55;;;;;;;21.65;11.90;;;9.70;82.20;;;;;;6307597;22;20409;-76
2023/01/15 05:52:20;;;;;;;18.05;11.93;;;9.80;82.50;;;;;;6307597;22;20437;-76
2023/01/15 05:54:48;;;;;;;17.95;11.40;;;9.80;82.00;;;;;;6307715;22;20003;-75
2023/01/15 05:57:14;;;;;;;20.83;12.23;;;9.80;82.20;;;;;;6307613;22;20085;-75
2023/01/15 05:59:40;;;;;;;18.70;12.02;;;9.90;82.30;;;;;;6307779;22;20007;-77
2023/01/15 06:02:05;;;;;;;20.17;12.07;;;9.90;82.00;;;;;;6307717;22;20421;-76
2023/01/15 06:04:31;;;;;;;19.48;11.65;;;9.90;82.40;;;;;;6307330;22;20061;-76
2023/01/15 06:06:57;;;;;;;20.05;11.50;;;10.00;81.30;;;;;;6279806;22;20448;-75
2023/01/15 06:09:26;;;;;;;22.60;12.52;;;10.00;81.30;;;;;;6307046;22;19999;-75
2023/01/15 06:11:52;;;;;;;17.33;11.75;;;10.00;81.20;;;;;;6307055;22;20030;-76
2023/01/15 06:14:18;;;;;;;20.10;11.52;;;10.00;81.40;;;;;;6307622;22;20015;-76
2023/01/15 06:16:44;;;;;;;18.55;11.07;;;10.00;81.70;;;;;;6307042;22;20025;-75
2023/01/15 06:19:12;;;;;;;19.38;11.63;;;10.00;81.30;;;;;;6307491;22;20346;-75
2023/01/15 06:21:37;;;;;;;16.60;10.68;;;10.00;81.60;;;;;;6307476;22;20031;-76
2023/01/15 06:24:03;;;;;;;17.98;11.35;;;10.00;81.40;;;;;;6307113;22;20076;-76
2023/01/15 06:26:29;;;;;;;21.20;11.63;;;10.00;81.70;;;;;;6307187;22;19996;-75
2023/01/15 06:28:55;;;;;;;19.40;11.75;;;10.00;81.50;;;;;;6307105;22;20000;-77
2023/01/15 06:31:22;;;;;;;19.35;11.52;;;10.00;81.50;;;;;;6307529;22;20006;-76
2023/01/15 06:33:48;;;;;;;18.27;11.73;;;10.00;81.60;;;;;;6306746;22;20130;-76
2023/01/15 06:36:22;;;;;;;20.52;11.43;;;10.00;81.60;;;;;;6307582;22;20031;-76
2023/01/15 06:38:49;;;;;;;24.08;11.85;;;10.00;81.60;;;;;;6307097;22;20019;-76
2023/01/15 06:49:36;;;;;;;19.20;11.38;;;10.10;81.60;;;;;;6307522;22;20101;-75
2023/01/15 06:52:02;;;;;;;19.55;11.00;;;10.20;81.60;;;;;;6307264;22;20003;-76
2023/01/15 06:54:28;;;;;;;16.85;10.93;;;10.20;81.50;;;;;;6307069;22;20007;-76
2023/01/15 06:56:54;;;;;;;19.27;11.38;;;10.20;81.80;;;;;;6306836;22;20081;-77
2023/01/15 06:59:20;;;;;;;17.13;11.00;;;10.20;81.70;;;;;;6306865;22;20003;-77
2023/01/15 07:01:46;;;;;;;17.50;11.52;;;10.20;82.20;;;;;;6306805;22;20136;-77
2023/01/15 07:04:11;;;;;;;17.17;11.18;;;10.20;81.60;;;;;;6306812;22;20003;-76
2023/01/15 07:06:37;;;;;;;18.83;11.32;;;10.30;81.60;;;;;;6306712;22;20023;-74
2023/01/15 07:09:03;;;;;;;18.35;11.00;;;10.30;81.60;;;;;;6306868;22;20002;-77
2023/01/15 07:11:29;;;;;;;16.08;10.82;;;10.40;81.50;;;;;;6306679;22;20078;-77
2023/01/15 07:14:04;;;;;;;18.00;11.18;;;10.40;81.60;;;;;;6306365;22;20445;-75
2023/01/15 07:16:34;;;;;;;18.02;11.07;;;10.40;81.90;;;;;;6306491;22;20008;-77
2023/01/15 07:19:00;;;;;;;19.80;11.43;;;10.40;81.90;;;;;;6306341;22;20007;-77
2023/01/15 07:21:25;;;;;;;20.40;11.45;;;10.40;82.00;;;;;;6279084;22;20003;-75
2023/01/15 07:23:51;;;;;;;18.88;11.32;;;10.40;81.90;;;;;;6306400;22;20547;-75
2023/01/15 07:26:17;;;;;;;20.25;11.43;;;10.50;81.90;;;;;;6306337;22;20078;-77
2023/01/15 07:28:43;;;;;;;21.73;11.48;;;10.40;81.70;;;;;;6278930;22;20006;-77
2023/01/15 07:31:08;;;;;;;22.25;11.15;;;10.40;82.00;;;;;;6306651;22;19991;-77
2023/01/15 07:33:34;;;;;;;18.48;11.00;;;10.40;81.90;;;;;;6306477;22;20092;-77
2023/01/15 07:36:04;;;;;;;19.77;11.07;;;10.50;81.90;;;;;;6306120;22;20006;-76
2023/01/15 07:38:29;;;;;;;16.77;11.10;;;10.50;81.80;;;;;;6306167;22;20015;-75
2023/01/15 07:51:54;;;;;;;16.08;10.38;;;10.70;81.30;;;;;;6306132;22;20022;-76
2023/01/15 07:54:19;;;;;;;17.27;10.63;;;10.80;81.20;;;;;;6306176;22;20015;-77
2023/01/15 07:56:45;;;;;;;15.35;10.38;;;10.90;81.30;;;;;;6306004;22;20019;-75
2023/01/15 07:59:11;;;;;;;17.58;10.30;;;10.90;80.80;;;;;;6306126;22;20078;-76
2023/01/15 08:01:37;;;;;;;18.23;11.45;;;10.90;80.70;;;;;;6306165;22;19996;-76
2023/01/15 08:04:02;;;;;;;17.77;10.23;;;11.00;80.80;;;;;;6306190;22;20405;-76
2023/01/15 08:06:28;;;;;;;16.13;10.93;;;11.00;80.60;;;;;;6306547;22;19999;-78
2023/01/15 08:08:54;;;;;;;16.83;11.00;;;11.00;80.90;;;;;;6306366;22;20120;-77
2023/01/15 08:16:48;;;;;;;;;;;11.30;80.80;;;;;;6307886;22;20100;-76
2023/01/15 08:19:13;;;;;;;18.38;11.00;;;11.40;81.40;;;;;;6307217;22;20356;-77
2023/01/15 08:21:39;;;;;;;15.80;10.10;;;11.40;80.50;;;;;;6307554;22;20306;-76
2023/01/15 08:24:05;;;;;;;21.92;11.10;;;11.40;80.40;;;;;;6307464;22;20333;-79
2023/01/15 08:26:30;;;;;;;20.70;11.25;;;11.40;80.50;;;;;;6306934;22;20046;-77
2023/01/15 08:28:56;;;;;;;21.95;12.23;;;11.50;80.70;;;;;;6306649;22;20003;-77
2023/01/15 08:31:22;;;;;;;16.83;10.80;;;11.50;80.80;;;;;;6306228;22;20094;-78
2023/01/15 08:33:47;;;;;;;19.83;10.43;;;11.50;80.80;;;;;;6307112;22;20027;-77
2023/01/15 08:36:14;;;;;;;20.35;11.75;;;11.50;81.10;;;;;;6308385;22;20079;-77
2023/01/15 08:38:40;;;;;;;18.67;11.13;;;11.60;81.20;;;;;;6280639;22;20019;-76
2023/01/15 08:41:06;;;;;;;16.60;10.60;;;11.60;81.20;;;;;;6307999;22;20000;-76
2023/01/15 08:43:32;;;;;;;19.88;10.63;;;11.60;81.10;;;;;;6308011;22;20010;-77
2023/01/15 08:46:02;;;;;;;19.45;12.02;;;11.70;81.20;;;;;;6307825;22;19999;-76
2023/01/15 08:48:29;;;;;;;15.93;10.50;;;11.70;81.20;;;;;;6308067;22;20003;-77
2023/01/15 08:50:55;;;;;;;19.17;11.60;;;11.70;81.10;;;;;;6307873;22;19996;-77
2023/01/15 08:53:23;;;;;;;15.52;10.10;;;11.80;81.40;;;;;;6307608;22;20197;-77
2023/01/15 08:55:49;;;;;;;19.20;10.85;;;11.80;81.50;;;;;;6307781;22;20003;-78
2023/01/15 08:58:15;;;;;;;18.80;12.02;;;11.90;81.40;;;;;;6307817;22;20046;-76
2023/01/15 09:00:42;;;;;;;19.17;11.38;;;11.90;81.30;;;;;;6307775;22;20082;-76
2023/01/15 09:03:08;;;;;;;19.17;11.82;;;11.90;81.30;;;;;;6307818;22;20083;-76
2023/01/15 09:05:35;;;;;;;17.27;11.60;;;12.00;81.30;;;;;;6307751;22;20306;-77
2023/01/15 09:08:01;;;;;;;21.33;13.00;;;12.00;81.10;;;;;;6307745;22;20026;-76
2023/01/15 09:10:26;;;;;;;17.73;12.23;;;12.10;81.40;;;;;;6308008;22;20029;-77
2023/01/15 09:12:52;;;;;;;22.30;12.75;;;12.20;80.80;;;;;;6308014;22;20008;-76
2023/01/15 09:15:18;;;;;;;19.73;12.82;;;12.20;80.60;;;;;;6307767;22;20464;-76
2023/01/15 09:17:43;;;;;;;18.73;13.48;;;12.30;80.60;;;;;;6280222;22;20379;-75
2023/01/15 09:20:12;;;;;;;22.02;11.98;;;12.30;80.60;;;;;;6307731;22;20004;-78
2023/01/15 09:22:37;;;;;;;23.27;12.82;;;12.30;81.00;;;;;;6308019;22;20048;-76
2023/01/15 09:25:03;;;;;;;19.77;12.45;;;12.40;81.20;;;;;;6307774;22;20490;-77
2023/01/15 09:27:29;;;;;;;19.92;11.88;;;12.40;81.40;;;;;;6307558;22;20078;-77
2023/01/15 09:29:55;;;;;;;20.45;12.57;;;12.40;81.60;;;;;;6307771;22;20032;-77
2023/01/15 09:32:21;;;;;;;24.63;13.68;;;12.40;81.60;;;;;;6307406;22;19995;-76
2023/01/15 09:34:47;;;;;;;22.02;13.73;;;12.50;81.80;;;;;;6307637;22;20057;-75
2023/01/15 09:37:13;;;;;;;22.70;11.98;;;12.50;81.90;;;;;;6308571;22;19999;-77
2023/01/15 09:39:39;;;;;;;22.58;13.15;;;12.50;82.60;;;;;;6308119;22;20014;-76
2023/01/15 09:42:44;;;;;;;31.88;13.88;;;12.40;82.10;;;;;;6307431;22;20006;-77
2023/01/15 09:45:16;;;;;;;22.52;13.25;;;12.40;81.90;;;;;;6306863;22;20000;-79
2023/01/15 09:47:58;;;;;;;28.08;13.35;;;12.40;81.90;;;;;;6307688;22;20003;-77
2023/01/15 09:50:42;;;;;;;20.50;14.00;;;12.50;81.90;;;;;;6307732;22;20010;-76
2023/01/15 09:53:17;;;;;;;23.98;16.05;;;12.60;81.90;;;;;;6307437;22;20075;-78
2023/01/15 09:55:48;;;;;;;21.40;14.63;;;12.70;81.70;;;;;;6279731;22;20141;-76
2023/01/15 09:58:18;;;;;;;24.33;13.77;;;12.90;81.80;;;;;;6307662;22;19999;-77
2023/01/15 10:00:49;;;;;;;24.23;11.95;;;13.00;81.80;;;;;;6307441;22;20003;-77
2023/01/15 10:03:27;;;;;;;17.95;10.68;;;13.10;81.90;;;;;;6307464;22;19999;-76
2023/01/15 10:06:05;;;;;;;20.92;9.52;;;13.20;82.20;;;;;;6307686;22;20034;-77
2023/01/15 10:08:45;;;;;;;15.70;9.48;;;13.20;81.90;;;;;;6307279;22;20021;-77
2023/01/15 10:11:14;;;;;;;17.13;8.63;;;13.30;82.40;;;;;;6307092;22;20011;-77
2023/01/15 10:13:47;;;;;;;19.88;8.77;;;13.30;82.20;;;;;;6307218;22;20011;-76
2023/01/15 10:16:31;;;;;;;16.75;8.43;;;13.40;82.50;;;;;;6307465;22;20321;-76
2023/01/15 10:18:57;;;;;;;17.37;9.23;;;13.40;82.70;;;;;;6307407;22;20082;-76
2023/01/15 10:21:56;;;;;;;13.70;7.03;;;13.50;82.80;;;;;;6307231;22;20275;-76
2023/01/15 10:24:36;;;;;;;15.77;7.70;;;13.50;83.00;;;;;;6307330;22;20445;-78
2023/01/15 10:27:13;;;;;;;17.83;7.75;;;13.50;83.20;;;;;;6307204;22;20071;-75
2023/01/15 10:30:02;;;;;;;17.48;7.18;;;13.50;83.20;;;;;;6307470;22;20455;-76
2023/01/15 10:32:50;;;;;;;16.48;7.75;;;13.50;83.70;;;;;;6307320;22;19999;-78
2023/01/15 10:35:38;;;;;;;21.40;7.68;;;13.60;83.90;;;;;;6307635;22;20068;-77
2023/01/15 10:38:27;;;;;;;20.95;8.27;;;13.70;84.10;;;;;;6306830;22;20080;-77
2023/01/15 10:40:56;;;;;;;21.10;7.90;;;13.80;84.00;;;;;;6279757;22;20022;-78
2023/01/15 10:43:56;;;;;;;17.40;7.03;;;13.80;84.40;;;;;;6307065;22;20129;-76
2023/01/15 10:46:26;;;;;;;18.50;6.20;;;13.80;84.20;;;;;;6306838;22;19999;-77
2023/01/15 10:49:00;;;;;;;19.50;6.88;;;13.80;84.60;;;;;;6306807;22;20436;-78
2023/01/15 10:51:33;;;;;;;14.02;6.47;;;13.90;84.80;;;;;;6307225;22;19999;-78
2023/01/15 10:54:23;;;;;;;18.23;6.00;;;14.00;84.80;;;;;;6305279;22;20290;-78
2023/01/15 10:57:10;;;;;;;14.18;5.97;;;14.00;84.50;;;;;;6306855;22;20424;-77
2023/01/15 10:59:58;;;;;;;13.98;5.53;;;14.00;84.50;;;;;;6307139;22;20005;-77
2023/01/15 11:02:33;;;;;;;15.27;5.97;;;14.00;84.70;;;;;;6307033;22;20010;-77
2023/01/15 11:05:01;;;;;;;18.42;5.90;;;14.00;85.20;;;;;;6306984;22;20003;-77
2023/01/15 11:07:40;;;;;;;11.77;4.97;;;13.90;85.20;;;;;;6279532;22;20346;-77
2023/01/15 11:10:11;;;;;;;15.10;5.60;;;13.90;85.10;;;;;;6307475;22;20102;-78
2023/01/15 11:21:21;;;;;;;13.57;5.75;;;13.90;85.80;;;;;;6181896;23;20024;-78
2023/01/15 11:23:48;;;;;;;10.02;4.50;;;14.00;85.70;;;;;;6262444;22;20018;-77
2023/01/15 11:26:21;;;;;;;13.75;4.95;;;14.00;85.80;;;;;;6306223;22;20067;-78
2023/01/15 11:28:47;;;;;;;10.93;4.88;;;14.10;85.80;;;;;;6305458;22;20007;-78
2023/01/15 11:31:14;;;;;;;13.50;5.22;;;14.10;85.50;;;;;;6307068;22;19999;-78
2023/01/15 11:33:44;;;;;;;13.02;4.78;;;14.20;85.50;;;;;;6307152;22;20011;-77
2023/01/15 11:36:22;;;;;;;12.98;5.22;;;14.20;85.50;;;;;;6306389;22;20003;-78
2023/01/15 11:38:50;;;;;;;12.20;5.05;;;14.20;85.40;;;;;;6306243;22;20027;-77
2023/01/15 11:53:02;;;;;;;13.02;4.90;;;14.10;85.70;;;;;;6306285;22;20022;-77
2023/01/15 11:55:28;;;;;;;16.73;5.25;;;14.20;85.60;;;;;;6306192;22;19995;-77
2023/01/15 11:57:55;;;;;;;19.33;6.10;;;14.20;85.70;;;;;;6306132;22;20068;-76
2023/01/15 12:00:24;;;;;;;13.88;4.85;;;14.20;85.70;;;;;;6306193;22;20436;-78
2023/01/15 12:02:53;;;;;;;14.95;5.00;;;14.30;85.50;;;;;;6278543;22;20444;-79
2023/01/15 12:05:25;;;;;;;15.73;5.63;;;14.40;85.50;;;;;;6306211;22;20007;-78
2023/01/15 12:07:55;;;;;;;13.25;5.78;;;14.40;85.10;;;;;;6305785;22;19999;-77
2023/01/15 12:13:38;;;;;;;13.05;4.97;;;14.60;84.70;;;;;;6307841;22;20022;-77
2023/01/15 12:16:07;;;;;;;15.45;5.43;;;14.60;84.50;;;;;;6306203;22;20404;-78
2023/01/15 12:18:45;;;;;;;13.25;5.80;;;14.70;84.40;;;;;;6305791;22;20396;-77
2023/01/15 12:21:38;;;;;;;12.52;5.82;;;14.70;84.30;;;;;;6306000;22;19995;-78
2023/01/15 12:24:31;;;;;;;15.60;6.53;;;14.70;84.30;;;;;;6306053;22;20003;-78
2023/01/15 12:27:24;;;;;;;10.52;5.72;;;14.70;84.50;;;;;;6305993;22;19999;-78
2023/01/15 12:30:02;;;;;;;14.30;5.65;;;14.70;84.20;;;;;;6306253;22;20516;-77
2023/01/15 12:32:34;;;;;;;15.18;6.10;;;14.70;84.00;;;;;;6306238;22;19995;-79
2023/01/15 12:35:15;;;;;;;12.55;5.90;;;14.70;83.90;;;;;;6306463;22;20354;-77
2023/01/15 12:37:50;;;;;;;13.75;5.57;;;14.70;83.90;;;;;;6306186;22;20487;-77
2023/01/15 12:40:59;;;;;;;13.40;5.88;;;14.80;84.00;;;;;;6306492;22;20075;-77
2023/01/15 12:46:32;;;;;;;16.73;6.53;;;14.80;83.50;;;;;;6306531;22;20068;-77
2023/01/15 12:49:23;;;;;;;14.50;6.50;;;14.80;83.90;;;;;;6306162;22;20004;-78
2023/01/15 12:51:56;;;;;;;14.60;6.78;;;14.80;83.70;;;;;;6306243;22;20002;-78
2023/01/15 12:54:38;;;;;;;13.57;6.57;;;14.90;83.20;;;;;;6306525;22;20011;-78
2023/01/15 12:57:15;;;;;;;13.15;7.65;;;14.90;83.60;;;;;;6306566;22;20086;-78
2023/01/15 13:00:03;;;;;;;17.45;8.90;;;14.90;83.40;;;;;;6306410;22;19995;-79
2023/01/15 13:02:52;;;;;;;16.10;7.50;;;14.90;83.60;;;;;;6306498;22;20026;-78
2023/01/15 13:05:28;;;;;;;14.65;7.63;;;14.90;83.60;;;;;;6306142;22;19995;-78
2023/01/15 13:08:18;;;;;;;13.98;7.53;;;15.00;83.20;;;;;;6306645;22;20017;-78
2023/01/15 13:10:47;;;;;;;22.27;7.82;;;15.00;83.10;;;;;;6305577;22;20101;-79
2023/01/15 13:13:15;;;;;;;15.27;7.63;;;15.00;82.70;;;;;;6306347;22;20079;-78
2023/01/15 13:16:21;;;;;;;16.65;7.97;;;15.10;82.70;;;;;;6278737;22;20008;-77
2023/01/15 13:19:15;;;;;;;18.08;8.77;;;15.10;83.50;;;;;;6270974;22;20030;-77
2023/01/15 13:21:44;;;;;;;17.27;8.82;;;15.20;83.50;;;;;;6308131;22;20070;-76
2023/01/15 13:24:36;;;;;;;18.90;8.52;;;15.20;82.70;;;;;;6307922;22;20006;-78
2023/01/15 13:27:30;;;;;;;15.63;7.82;;;15.20;83.50;;;;;;6307972;22;20389;-78
2023/01/15 13:30:10;;;;;;;15.05;8.05;;;15.10;83.60;;;;;;6307939;22;20007;-78
2023/01/15 13:32:43;;;;;;;17.90;8.20;;;15.10;83.60;;;;;;6308288;22;20068;-78
2023/01/15 13:35:30;;;;;;;16.83;9.97;;;15.10;82.90;;;;;;6308071;22;20011;-78
2023/01/15 13:37:58;;;;;;;17.13;8.30;;;15.10;83.30;;;;;;6306016;22;20441;-77
2023/01/15 13:40:37;;;;;;;16.30;8.63;;;15.10;83.40;;;;;;6307638;22;20003;-78
2023/01/15 13:43:06;;;;;;;14.43;8.55;;;15.10;84.00;;;;;;6307781;22;19999;-78
2023/01/15 13:45:47;;;;;;;15.70;8.75;;;15.00;83.40;;;;;;6307965;22;20053;-78
2023/01/15 13:48:19;;;;;;;15.82;8.52;;;15.00;84.20;;;;;;6307707;22;20062;-77
2023/01/15 13:50:53;;;;;;;16.27;8.75;;;15.00;83.70;;;;;;6307594;22;20414;-75